Portada
METAR-TAF:

METAR-TAF

Aeroports :

Aeroport de Marràqueix

Marràqueix, Marroc

latitud: 31-37N, longitud: 008-02W, altitud: 468 m

Observació

L'informe es va fer fa 24 minuts, a les 17:00 UTC
Vent 7 kt del Nord-Est, variant entre Nord i Est
Temperatura 25°C
Humitat 21%
Pressió 1020 hPa
Visibilitat 10 km o més
sense núvols per sota de 1500 mi sense presència de cumulonimbus.

METAR: GMMX 261700Z 05007KT 360V080 CAVOK 25/01 Q1020 NOSIG

Hora: 18:24 (17:24 UTC)

Pronòstic

L'informe es va fer fa 6 hores i 24 minuts, a les 11:00 UTC
Pronòstic vàlid del 26 a les 12 UTC al 27 a les 18 UTC
Vent 6 kt del Est/Nord-Est
Visibilitat 10 km o més
sense núvols per sota de 1500 mi sense presència de cumulonimbus.
Temporalment
l' 26 a les 16 UTC al 26 a les 20 UTC
Vent 14 kt del Nord-Oest

TAF: GMMX 261100Z 2612/2718 06006KT CAVOK TEMPO 2616/2620 32014KT

Observacions i pronòstics meteorològics de més de 4000 aeroports (METAR i TAF).

Les estacions disponibles són els punts grocs i vermells al mapa.

Posi el ratolí al punt desitjat per veure el nom de l'estació.

Feu clic per veure les observacions i els pronòstics meteorològics.

Per canviar el mapa: feu clic els botons verds amb una creu de color negre per apropar; al botó verd amb un guió per allunyar la imatge; o en les fletxes verdes per a mapes adjacents.


METAR-TAF: